Amarillo, TX (79105)

10:50 AM CDT on September 27, 2016 (GMT -0500)
Rural Area East of Canyon | | Change Station

Elev 3612 ft 35.02 °N, 101.82 °W | Updated 21 seconds ago

Clear
Clear
71.0 °F
Feels Like 77 °F
N
5.0
Wind Variable Wind from SW

Today
High -- | Low -- °F
--% Chance of Precip.
Yesterday
High -- | Low -- °F
Precip. -- in
Pressure 30.14 in
Visibility 10.0 miles
Clouds Clear
Heat Index 77 °F
Dew Point 44 °F
Humidity 37%
Rainfall 0.00 in
Snow Depth Not available.
7:39 AM 7:35 PM
Waning Crescent, 11% visible
METAR KAMA 271453Z 26006KT 10SM CLR 18/04 A3023 RMK AO2 SLP205 T01830044 56004
Pressure 30.14 in
Visibility 10.0 miles
Clouds Clear
Heat Index 77 °F
Dew Point 44 °F
Humidity 37%
Rainfall 0.00 in
Snow Depth Not available.
7:39 AM 7:35 PM
Waning Crescent, 11% visible
METAR KAMA 271453Z 26006KT 10SM CLR 18/04 A3023 RMK AO2 SLP205 T01830044 56004

10-Day Weather Forecast

Almanac

Astronomy

Sep. 27, 2016 Rise Set
Actual Time
Civil Twilight
Nautical Twilight
Astronomical Twilight
Moon
Length of Visible Light
Length of Day
Tomorrow will be .
, % of the Moon is Illuminated

Today's Extremes

State Highs State Lows

Community

WunderPhotos

Upload Photos

1,942,115 photos uploaded!

WunderBlog® & News

Nearby

Air Quality

  Air Quality AQ Index Pollutant
Not available.

Snow Depth

Station Depth Elevation

Earthquake Activity

City Distance Mag. Time & Date
Minimum magnitude displayed is 2.5.

Coastal Water Temperatures

Place Temperature

Stations

Nearby Weather Stations

Station Location Temp. Windchill Dew Point Humidity Wind Precip. Elev Updated Type
                   

Watches & Warnings

There are currently no watches in effect.